Terminal Aerodrome Forecast
Issued by NWS

Home | Current Version | Previous Version | Text Only | Print | Product List | Glossary On
Versions: 1 2 3 4 5 6 7 8 9 10 11 12 13 14
870
FTUS46 KSGX 271744
TAFTRM
TAF
KTRM 271744Z 2718/2818 16003KT P6SM VCSH SCT070 BKN090
     FM271900 16008KT P6SM -SHRA SCT030 OVC060
     FM280300 31006KT P6SM VCSH SCT040 BKN060
     FM280800 33008KT P6SM SCT040 SCT060=

USA.gov is the U.S. government's official web portal to all federal, state and local government web resources and services.